createdAt,value
2022-08-17T00:00:34.603Z,17.33
2022-08-17T00:03:11.664Z,17.26
2022-08-17T00:05:50.760Z,17.29
2022-08-17T00:08:22.272Z,17.11
2022-08-17T00:10:50.996Z,17.15
2022-08-17T00:13:24.950Z,17.18
2022-08-17T00:15:56.180Z,17.16
2022-08-17T00:19:01.766Z,17.00
2022-08-17T00:21:14.252Z,17.06
2022-08-17T00:23:44.319Z,16.95
2022-08-17T00:26:16.441Z,16.76
2022-08-17T00:29:05.681Z,16.91
2022-08-17T00:31:35.869Z,16.96
2022-08-17T00:34:04.678Z,17.00
2022-08-17T00:36:32.948Z,16.90
2022-08-17T00:39:01.246Z,16.82
2022-08-17T00:41:29.609Z,16.67
2022-08-17T00:44:03.041Z,16.61
2022-08-17T00:46:35.052Z,16.48
2022-08-17T00:49:04.001Z,16.58
2022-08-17T00:51:55.765Z,16.45
2022-08-17T00:54:27.856Z,16.48
2022-08-17T00:56:59.160Z,16.32
2022-08-17T00:59:33.838Z,16.47
2022-08-17T01:02:02.225Z,16.34
2022-08-17T01:04:30.776Z,16.28
2022-08-17T01:06:59.280Z,16.24
2022-08-17T01:09:27.817Z,16.28
2022-08-17T01:11:56.114Z,16.19
2022-08-17T01:14:25.291Z,16.19
2022-08-17T01:16:54.706Z,16.20
2022-08-17T01:19:29.035Z,16.26
2022-08-17T01:22:20.306Z,16.23
2022-08-17T01:24:56.754Z,16.12
2022-08-17T01:27:25.164Z,16.02
2022-08-17T01:29:58.261Z,16.07
2022-08-17T01:32:27.378Z,16.07
2022-08-17T01:34:55.820Z,16.08
2022-08-17T01:37:30.371Z,16.16
2022-08-17T01:40:03.561Z,16.09
2022-08-17T01:42:38.576Z,15.96
2022-08-17T01:45:17.812Z,16.07
2022-08-17T01:47:46.338Z,16.03
2022-08-17T01:50:17.818Z,15.84
2022-08-17T01:52:47.014Z,15.92
2022-08-17T01:55:16.751Z,15.93
2022-08-17T01:57:45.852Z,15.98
2022-08-17T02:00:14.534Z,15.99
2022-08-17T02:02:46.012Z,15.76
2022-08-17T02:05:14.648Z,15.86
2022-08-17T02:07:59.500Z,15.51
2022-08-17T02:10:33.873Z,15.49
2022-08-17T02:13:03.883Z,15.69
2022-08-17T02:15:32.528Z,15.55
2022-08-17T02:18:02.204Z,15.62
2022-08-17T02:20:41.254Z,15.43
2022-08-17T02:23:12.151Z,15.44
2022-08-17T02:25:40.897Z,15.51
2022-08-17T02:28:09.446Z,15.47
2022-08-17T02:30:59.656Z,15.57
2022-08-17T02:33:42.030Z,15.58
2022-08-17T02:36:12.463Z,15.49
2022-08-17T02:38:41.019Z,15.44
2022-08-17T02:41:09.449Z,15.44
2022-08-17T02:43:37.777Z,15.36
2022-08-17T02:46:06.016Z,15.29
2022-08-17T02:48:34.622Z,15.30
2022-08-17T02:51:02.960Z,15.32
2022-08-17T02:53:35.749Z,15.22
2022-08-17T02:56:04.771Z,15.28
2022-08-17T02:58:34.693Z,15.06
2022-08-17T03:01:05.630Z,15.10
2022-08-17T03:03:33.977Z,15.22
2022-08-17T03:06:02.506Z,15.09
2022-08-17T03:08:30.849Z,15.13
2022-08-17T03:10:59.177Z,15.01
2022-08-17T03:13:28.002Z,15.01
2022-08-17T03:15:56.809Z,15.04
2022-08-17T03:18:26.457Z,14.82
2022-08-17T03:20:55.800Z,14.95
2022-08-17T03:23:25.295Z,14.99
2022-08-17T03:25:54.168Z,14.84
2022-08-17T03:28:23.056Z,14.87
2022-08-17T03:30:51.684Z,14.90
2022-08-17T03:33:20.198Z,14.67
2022-08-17T03:35:48.755Z,14.64
2022-08-17T03:38:17.591Z,14.58
2022-08-17T03:40:57.713Z,14.52
2022-08-17T03:43:31.598Z,14.66
2022-08-17T03:46:28.837Z,14.54
2022-08-17T03:49:23.281Z,14.71
2022-08-17T03:52:10.599Z,14.67
2022-08-17T03:54:58.378Z,14.72
2022-08-17T03:57:26.700Z,14.80
2022-08-17T03:59:56.270Z,14.83
2022-08-17T04:02:32.113Z,14.83
2022-08-17T04:05:00.604Z,14.84
2022-08-17T04:07:30.395Z,14.85
2022-08-17T04:09:59.664Z,14.99
2022-08-17T04:12:31.315Z,14.90
2022-08-17T04:14:59.887Z,14.96
2022-08-17T04:17:28.931Z,14.95
2022-08-17T04:19:57.515Z,14.99
2022-08-17T04:22:32.622Z,15.10
2022-08-17T04:25:10.661Z,15.21
2022-08-17T04:27:38.980Z,15.26
2022-08-17T04:30:07.931Z,15.30
2022-08-17T04:33:09.852Z,15.29
2022-08-17T04:35:41.396Z,15.48
2022-08-17T04:38:12.245Z,15.69
2022-08-17T04:40:59.073Z,15.84
2022-08-17T04:43:27.786Z,15.89
2022-08-17T04:46:01.675Z,16.03
2022-08-17T04:48:36.487Z,16.08
2022-08-17T04:51:12.049Z,16.22
2022-08-17T04:53:42.097Z,16.39
2022-08-17T04:56:16.160Z,16.45
2022-08-17T04:58:50.355Z,16.60
2022-08-17T05:01:23.709Z,16.63
2022-08-17T05:03:54.040Z,16.75
2022-08-17T05:06:22.740Z,16.84
2022-08-17T05:08:51.175Z,16.99
2022-08-17T05:11:19.545Z,17.05
2022-08-17T05:13:50.459Z,17.08
2022-08-17T05:16:19.431Z,17.36
2022-08-17T05:18:47.872Z,17.49
2022-08-17T05:21:16.251Z,17.37
2022-08-17T05:23:44.782Z,17.29
2022-08-17T05:26:26.088Z,17.62
2022-08-17T05:28:58.436Z,17.82
2022-08-17T05:31:29.241Z,17.83
2022-08-17T05:33:57.662Z,17.86
2022-08-17T05:36:43.622Z,18.12
2022-08-17T05:39:15.860Z,18.15
2022-08-17T05:41:47.935Z,18.33
2022-08-17T05:44:16.928Z,18.40
2022-08-17T05:46:49.403Z,18.43
2022-08-17T05:49:25.948Z,18.54
2022-08-17T05:52:20.079Z,18.44
2022-08-17T05:55:40.653Z,18.59
2022-08-17T05:58:09.033Z,18.69
2022-08-17T06:00:56.233Z,18.77
2022-08-17T06:03:43.514Z,18.97
2022-08-17T06:06:21.487Z,19.10
2022-08-17T06:09:28.940Z,19.20
2022-08-17T06:12:32.747Z,19.17
2022-08-17T06:15:09.825Z,19.36
2022-08-17T06:17:38.269Z,19.52
2022-08-17T06:20:13.050Z,19.71
2022-08-17T06:22:51.967Z,19.64
2022-08-17T06:25:36.394Z,19.72
2022-08-17T06:28:14.455Z,19.93
2022-08-17T06:31:07.354Z,19.94
2022-08-17T06:33:36.942Z,20.08
2022-08-17T06:36:30.530Z,20.03
2022-08-17T06:39:43.144Z,20.30
2022-08-17T06:42:54.959Z,20.61
2022-08-17T06:45:28.116Z,20.69
2022-08-17T06:47:59.165Z,20.83
2022-08-17T06:50:43.076Z,20.99
2022-08-17T06:53:19.949Z,21.13
2022-08-17T06:56:09.097Z,21.45
2022-08-17T06:58:38.894Z,21.64
2022-08-17T07:01:09.366Z,21.60
2022-08-17T07:04:06.710Z,21.81
2022-08-17T07:06:54.030Z,22.03
2022-08-17T07:09:35.051Z,22.02
2022-08-17T07:12:10.606Z,22.33
2022-08-17T07:14:46.230Z,22.55
2022-08-17T07:17:16.024Z,22.65
2022-08-17T07:19:45.782Z,22.85
2022-08-17T07:22:28.186Z,22.97
2022-08-17T07:25:04.873Z,23.10
2022-08-17T07:27:46.314Z,23.15
2022-08-17T07:30:23.780Z,23.39
2022-08-17T07:33:00.825Z,23.47
2022-08-17T07:35:31.328Z,23.59
2022-08-17T07:38:24.708Z,23.84
2022-08-17T07:41:12.685Z,23.98
2022-08-17T07:43:41.935Z,24.27
2022-08-17T07:46:45.419Z,24.32
2022-08-17T07:49:13.729Z,24.42
2022-08-17T07:51:45.987Z,24.73
2022-08-17T07:54:23.855Z,24.74
2022-08-17T07:57:03.893Z,24.90
2022-08-17T07:59:36.839Z,25.06
2022-08-17T08:02:17.880Z,25.08
2022-08-17T08:05:00.911Z,25.33
2022-08-17T08:07:40.479Z,25.27
2022-08-17T08:10:10.938Z,25.48
2022-08-17T08:12:43.801Z,25.68
2022-08-17T08:15:16.915Z,25.87
2022-08-17T08:17:52.368Z,25.94
2022-08-17T08:20:53.906Z,25.88
2022-08-17T08:23:32.902Z,26.06
2022-08-17T08:26:20.821Z,26.17
2022-08-17T08:29:18.721Z,26.21
2022-08-17T08:31:59.402Z,26.50
2022-08-17T08:35:03.677Z,26.58
2022-08-17T08:37:57.344Z,26.78
2022-08-17T08:40:30.489Z,26.80
2022-08-17T08:43:24.864Z,26.98
2022-08-17T08:46:14.470Z,26.92
2022-08-17T08:48:58.755Z,27.10
2022-08-17T08:52:13.082Z,27.33
2022-08-17T08:55:22.587Z,27.31
2022-08-17T08:57:57.033Z,27.46
2022-08-17T09:00:25.658Z,27.49
2022-08-17T09:03:49.748Z,27.57
2022-08-17T09:06:39.622Z,27.87
2022-08-17T09:09:47.781Z,27.86
2022-08-17T09:12:36.142Z,28.09
2022-08-17T09:15:13.356Z,28.27
2022-08-17T09:18:28.456Z,28.27
2022-08-17T09:21:12.099Z,28.35
2022-08-17T09:23:45.010Z,28.50
2022-08-17T09:26:25.633Z,28.50
2022-08-17T09:28:56.357Z,28.59
2022-08-17T09:31:48.750Z,28.37
2022-08-17T09:34:21.596Z,28.30
2022-08-17T09:37:38.301Z,28.64
2022-08-17T09:40:18.231Z,28.63
2022-08-17T09:43:25.167Z,28.74
2022-08-17T09:45:57.501Z,28.86
2022-08-17T09:48:36.561Z,29.18
2022-08-17T09:51:13.922Z,28.78
2022-08-17T09:53:44.790Z,28.83
2022-08-17T09:56:13.147Z,29.00
2022-08-17T09:59:37.133Z,29.02
2022-08-17T10:02:22.272Z,29.15
2022-08-17T10:05:04.256Z,29.11
2022-08-17T10:07:46.946Z,29.02
2022-08-17T10:10:26.880Z,29.19
2022-08-17T10:13:03.976Z,29.10
2022-08-17T10:16:17.385Z,29.03
2022-08-17T10:18:55.640Z,28.98
2022-08-17T10:21:51.219Z,28.74
2022-08-17T10:25:01.966Z,28.75
2022-08-17T10:27:52.837Z,29.01
2022-08-17T10:30:27.297Z,29.16
2022-08-17T10:33:16.029Z,29.10
2022-08-17T10:35:53.431Z,29.28
2022-08-17T10:38:29.241Z,29.31
2022-08-17T10:41:25.891Z,29.20
2022-08-17T10:44:38.632Z,29.23
2022-08-17T10:47:05.984Z,29.00
2022-08-17T10:49:39.284Z,28.74
2022-08-17T10:52:28.211Z,28.31
2022-08-17T10:54:59.475Z,28.41
2022-08-17T10:57:32.012Z,28.29
2022-08-17T11:00:28.621Z,28.29
2022-08-17T11:03:04.162Z,28.26
2022-08-17T11:05:54.381Z,28.11
2022-08-17T11:08:50.607Z,28.31
2022-08-17T11:11:40.696Z,28.56
2022-08-17T11:14:31.482Z,28.58
2022-08-17T11:17:36.756Z,28.68
2022-08-17T11:20:20.221Z,28.96
2022-08-17T11:23:07.861Z,29.12
2022-08-17T11:25:45.337Z,29.18
2022-08-17T11:28:19.547Z,29.27
2022-08-17T11:31:38.521Z,29.52
2022-08-17T11:34:21.917Z,29.42
2022-08-17T11:37:09.002Z,29.58
2022-08-17T11:40:07.372Z,29.72
2022-08-17T11:43:05.110Z,29.84
2022-08-17T11:45:48.608Z,30.10
2022-08-17T11:48:41.648Z,30.14
2022-08-17T11:51:47.180Z,30.12
2022-08-17T11:54:32.324Z,29.92
2022-08-17T11:57:26.162Z,29.83
2022-08-17T12:00:03.768Z,29.63
2022-08-17T12:02:35.516Z,29.72
2022-08-17T12:05:21.504Z,29.75
2022-08-17T12:08:00.345Z,29.69
2022-08-17T12:10:33.150Z,29.55
2022-08-17T12:13:10.671Z,29.37
2022-08-17T12:15:51.426Z,29.30
2022-08-17T12:18:27.599Z,29.25
2022-08-17T12:21:23.215Z,29.33
2022-08-17T12:24:33.011Z,29.53
2022-08-17T12:27:04.609Z,29.58
2022-08-17T12:29:35.842Z,29.72
2022-08-17T12:32:07.624Z,30.18
2022-08-17T12:34:38.458Z,30.36
2022-08-17T12:37:23.588Z,30.01
2022-08-17T12:39:57.742Z,30.12
2022-08-17T12:42:34.066Z,30.29
2022-08-17T12:45:05.579Z,30.12
2022-08-17T12:47:37.887Z,29.45
2022-08-17T12:50:28.723Z,29.16
2022-08-17T12:53:02.305Z,29.82
2022-08-17T12:55:37.193Z,29.67
2022-08-17T12:58:12.249Z,29.74
2022-08-17T13:00:48.969Z,29.68
2022-08-17T13:03:22.508Z,30.01
2022-08-17T13:05:53.491Z,30.04
2022-08-17T13:08:27.888Z,29.97
2022-08-17T13:11:03.529Z,30.50
2022-08-17T13:13:35.959Z,30.28
2022-08-17T13:16:10.019Z,30.25
2022-08-17T13:18:55.527Z,30.44
2022-08-17T13:21:27.193Z,30.57
2022-08-17T13:24:02.329Z,30.72
2022-08-17T13:26:51.597Z,30.88
2022-08-17T13:29:33.163Z,30.91
2022-08-17T13:32:13.026Z,30.81
2022-08-17T13:34:59.646Z,30.35
2022-08-17T13:37:35.945Z,30.22
2022-08-17T13:40:10.397Z,30.29
2022-08-17T13:42:54.743Z,30.54
2022-08-17T13:45:36.743Z,30.82
2022-08-17T13:48:13.545Z,30.81
2022-08-17T13:50:58.006Z,30.76
2022-08-17T13:53:40.238Z,30.83
2022-08-17T13:56:38.301Z,30.61
2022-08-17T13:59:12.587Z,30.29
2022-08-17T14:01:53.335Z,30.11
2022-08-17T14:04:25.301Z,30.29
2022-08-17T14:06:57.944Z,30.33
2022-08-17T14:09:31.427Z,30.31
2022-08-17T14:12:04.274Z,30.27
2022-08-17T14:14:32.642Z,30.32
2022-08-17T14:17:02.252Z,30.49
2022-08-17T14:19:30.647Z,30.54
2022-08-17T14:22:01.098Z,30.88
2022-08-17T14:24:35.424Z,30.22
2022-08-17T14:27:05.108Z,30.35
2022-08-17T14:29:34.653Z,30.12
2022-08-17T14:32:12.930Z,29.57
2022-08-17T14:34:41.283Z,29.79
2022-08-17T14:37:10.048Z,29.93
2022-08-17T14:39:38.768Z,30.16
2022-08-17T14:42:07.359Z,29.92
2022-08-17T14:44:36.831Z,30.12
2022-08-17T14:47:06.298Z,29.74
2022-08-17T14:49:34.541Z,29.80
2022-08-17T14:52:03.085Z,29.52
2022-08-17T14:54:34.368Z,29.65
2022-08-17T14:57:23.866Z,30.08
2022-08-17T14:59:55.148Z,30.10
2022-08-17T15:02:30.515Z,30.18
2022-08-17T15:05:00.488Z,29.95
2022-08-17T15:07:30.486Z,30.38
2022-08-17T15:10:02.470Z,30.31
2022-08-17T15:12:34.064Z,30.20
2022-08-17T15:15:04.716Z,30.29
2022-08-17T15:17:45.186Z,29.99
2022-08-17T15:20:26.598Z,30.01
2022-08-17T15:22:59.147Z,30.06
2022-08-17T15:25:29.409Z,29.64
2022-08-17T15:27:58.371Z,29.77
2022-08-17T15:30:27.301Z,29.87
2022-08-17T15:32:57.279Z,30.05
2022-08-17T15:35:28.957Z,29.58
2022-08-17T15:38:07.904Z,30.02
2022-08-17T15:40:43.776Z,29.67
2022-08-17T15:43:15.772Z,29.49
2022-08-17T15:45:44.746Z,30.00
2022-08-17T15:48:41.811Z,29.74
2022-08-17T15:51:17.084Z,29.84
2022-08-17T15:53:51.469Z,29.57
2022-08-17T15:56:20.107Z,29.55
2022-08-17T15:58:48.769Z,29.63
2022-08-17T16:02:21.598Z,29.69
2022-08-17T16:04:26.931Z,29.55
2022-08-17T16:07:00.769Z,29.59
2022-08-17T16:09:29.421Z,29.68
2022-08-17T16:11:57.821Z,29.67
2022-08-17T16:14:32.510Z,29.40
2022-08-17T16:17:04.785Z,29.56
2022-08-17T16:19:44.194Z,29.24
2022-08-17T16:22:12.835Z,29.21
2022-08-17T16:24:47.681Z,29.20
2022-08-17T16:27:26.214Z,28.89
2022-08-17T16:29:55.484Z,28.95
2022-08-17T16:32:31.818Z,29.06
2022-08-17T16:35:03.651Z,28.99
2022-08-17T16:37:33.062Z,28.88
2022-08-17T16:40:07.111Z,28.72
2022-08-17T16:42:37.749Z,28.79
2022-08-17T16:45:13.315Z,28.70
2022-08-17T16:47:44.300Z,28.74
2022-08-17T16:50:14.540Z,28.56
2022-08-17T16:52:43.006Z,28.67
2022-08-17T16:55:13.185Z,28.79
2022-08-17T16:57:48.548Z,28.60
2022-08-17T17:00:21.273Z,28.56
2022-08-17T17:02:50.570Z,28.47
2022-08-17T17:05:34.802Z,28.30
2022-08-17T17:08:13.084Z,28.00
2022-08-17T17:10:49.320Z,27.81
2022-08-17T17:13:27.114Z,27.32
2022-08-17T17:16:09.584Z,27.29
2022-08-17T17:19:01.282Z,26.79
2022-08-17T17:22:15.311Z,26.69
2022-08-17T17:25:17.533Z,26.22
2022-08-17T17:28:18.097Z,26.28
2022-08-17T17:31:06.737Z,25.85
2022-08-17T17:33:41.065Z,25.66
2022-08-17T17:36:48.426Z,25.48
2022-08-17T17:39:41.690Z,25.11
2022-08-17T17:42:14.897Z,25.13
2022-08-17T17:44:59.906Z,25.01
2022-08-17T17:47:29.872Z,25.12
2022-08-17T17:50:00.553Z,24.66
2022-08-17T17:52:38.501Z,24.61
2022-08-17T17:55:34.590Z,24.42
2022-08-17T17:58:24.640Z,24.36
2022-08-17T18:01:50.249Z,24.33
2022-08-17T18:04:42.660Z,24.05
2022-08-17T18:07:30.661Z,23.84
2022-08-17T18:10:04.891Z,24.05
2022-08-17T18:13:26.570Z,23.62
2022-08-17T18:15:56.009Z,23.75
2022-08-17T18:18:40.776Z,23.27
2022-08-17T18:21:19.839Z,23.05
2022-08-17T18:23:56.453Z,22.87
2022-08-17T18:26:34.006Z,22.89
2022-08-17T18:29:24.186Z,22.68
2022-08-17T18:32:28.262Z,22.82
2022-08-17T18:34:59.295Z,22.86
2022-08-17T18:37:41.996Z,22.99
2022-08-17T18:40:24.853Z,22.62
2022-08-17T18:43:00.873Z,22.42
2022-08-17T18:45:36.322Z,22.40
2022-08-17T18:48:06.291Z,22.51
2022-08-17T18:51:01.175Z,22.84
2022-08-17T18:53:38.069Z,22.66
2022-08-17T18:56:31.562Z,22.71
2022-08-17T18:59:27.779Z,22.63
2022-08-17T19:02:10.180Z,22.55
2022-08-17T19:05:04.252Z,22.13
2022-08-17T19:07:58.752Z,22.16
2022-08-17T19:10:33.718Z,22.09
2022-08-17T19:13:24.349Z,21.98
2022-08-17T19:16:11.727Z,21.94
2022-08-17T19:19:07.421Z,22.18
2022-08-17T19:21:47.292Z,22.33
2022-08-17T19:24:19.998Z,22.03
2022-08-17T19:27:27.195Z,21.81
2022-08-17T19:30:08.774Z,21.52
2022-08-17T19:32:37.926Z,21.56
2022-08-17T19:35:17.513Z,21.44
2022-08-17T19:38:36.476Z,21.65
2022-08-17T19:41:12.667Z,21.65
2022-08-17T19:43:41.220Z,21.44
2022-08-17T19:46:20.319Z,21.42
2022-08-17T19:48:57.107Z,21.38
2022-08-17T19:51:41.150Z,21.29
2022-08-17T19:54:24.305Z,21.36
2022-08-17T19:57:11.015Z,21.13
2022-08-17T19:59:59.561Z,21.40
2022-08-17T20:02:43.800Z,21.27
2022-08-17T20:05:19.388Z,21.12
2022-08-17T20:08:33.978Z,20.92
2022-08-17T20:11:21.910Z,20.92
2022-08-17T20:13:57.732Z,20.44
2022-08-17T20:16:26.143Z,20.77
2022-08-17T20:19:05.378Z,20.57
2022-08-17T20:22:03.695Z,20.68
2022-08-17T20:24:59.326Z,20.96
2022-08-17T20:27:31.597Z,21.05
2022-08-17T20:30:12.293Z,20.65
2022-08-17T20:32:52.943Z,20.54
2022-08-17T20:35:35.903Z,20.18
2022-08-17T20:38:37.535Z,19.86
2022-08-17T20:41:10.284Z,20.18
2022-08-17T20:43:38.685Z,20.09
2022-08-17T20:46:39.667Z,20.28
2022-08-17T20:49:23.381Z,19.88
2022-08-17T20:52:10.015Z,19.79
2022-08-17T20:54:49.125Z,19.89
2022-08-17T20:57:32.810Z,20.01
2022-08-17T21:00:19.870Z,20.00
2022-08-17T21:02:51.534Z,19.82
2022-08-17T21:05:34.474Z,19.99
2022-08-17T21:08:17.680Z,19.63
2022-08-17T21:10:46.782Z,19.57
2022-08-17T21:13:15.680Z,19.82
2022-08-17T21:15:50.659Z,19.58
2022-08-17T21:18:33.577Z,19.72
2022-08-17T21:21:26.711Z,19.28
2022-08-17T21:24:27.330Z,19.34
2022-08-17T21:27:22.500Z,19.10
2022-08-17T21:30:06.660Z,19.09
2022-08-17T21:32:41.809Z,19.09
2022-08-17T21:35:30.293Z,18.94
2022-08-17T21:38:03.160Z,19.05
2022-08-17T21:40:33.412Z,19.26
2022-08-17T21:43:23.749Z,18.97
2022-08-17T21:46:11.143Z,19.08
2022-08-17T21:48:48.080Z,18.92
2022-08-17T21:51:18.311Z,18.84
2022-08-17T21:53:56.013Z,18.67
2022-08-17T21:56:46.319Z,18.75
2022-08-17T21:59:26.368Z,18.42
2022-08-17T22:02:02.063Z,18.42
2022-08-17T22:04:31.619Z,18.30
2022-08-17T22:07:02.173Z,18.35
2022-08-17T22:09:32.832Z,17.85
2022-08-17T22:12:12.625Z,18.14
2022-08-17T22:14:53.370Z,18.17
2022-08-17T22:17:23.281Z,18.10
2022-08-17T22:20:02.979Z,18.23
2022-08-17T22:23:19.057Z,18.19
2022-08-17T22:26:04.427Z,17.87
2022-08-17T22:29:09.006Z,18.12
2022-08-17T22:31:54.306Z,17.95
2022-08-17T22:34:22.695Z,17.69
2022-08-17T22:36:50.939Z,18.13
2022-08-17T22:39:26.473Z,17.81
2022-08-17T22:42:01.219Z,18.05
2022-08-17T22:44:32.245Z,17.59
2022-08-17T22:47:39.068Z,17.95
2022-08-17T22:50:30.007Z,17.99
2022-08-17T22:53:19.092Z,17.67
2022-08-17T22:56:13.219Z,17.70
2022-08-17T22:59:12.772Z,17.47
2022-08-17T23:01:41.411Z,17.49
2022-08-17T23:04:16.320Z,17.55
2022-08-17T23:06:44.584Z,17.42
2022-08-17T23:09:13.195Z,17.38
2022-08-17T23:11:48.999Z,17.34
2022-08-17T23:14:20.019Z,17.51
2022-08-17T23:16:50.486Z,17.51
2022-08-17T23:19:20.960Z,17.69
2022-08-17T23:21:55.546Z,17.73
2022-08-17T23:24:29.100Z,17.20
2022-08-17T23:26:57.524Z,17.18
2022-08-17T23:29:27.013Z,17.11
2022-08-17T23:31:58.021Z,17.08
2022-08-17T23:34:28.305Z,17.57
2022-08-17T23:36:56.691Z,17.21
2022-08-17T23:39:28.103Z,17.25
2022-08-17T23:41:58.037Z,17.07
2022-08-17T23:44:26.824Z,17.26
2022-08-17T23:46:55.218Z,16.98
2022-08-17T23:49:25.367Z,17.06
2022-08-17T23:51:56.827Z,17.14
2022-08-17T23:54:29.952Z,17.11
2022-08-17T23:56:58.257Z,17.03
2022-08-17T23:59:27.773Z,17.06
